Terminal Aerodrome Forecast
Issued by NWS Charleston, WV

Current Version | Previous Version | Graphics & Text | Print | Product List | Glossary On
Versions: 1 2 3 4 5 6 7 8 9 10 11 12 13 14 15 16 17 18 19 20 21
000
FTUS41 KRLX 290231 AAA
TAFEKN
TAF AMD
KEKN 290231Z 2903/2924 26008KT P6SM BKN050
     FM290500 00000KT 5SM BR FEW040
     FM290700 00000KT 1/4SM FG VV001
     FM291100 00000KT 1SM BR BKN002
     FM291300 00000KT 5SM BR SCT005 SCT200
     FM291400 22004KT P6SM SCT150
     FM292000 23006KT P6SM BKN060=

USA.gov is the U.S. government's official web portal to all federal, state and local government web resources and services.